sensor_id;sensor_type;location;lat;lon;timestamp;P1;durP1;ratioP1;P2;durP2;ratioP2
18804;SDS011;9530;48.930;9.526;2023-03-15T00:01:40;3.93;;;1.87;;
18804;SDS011;9530;48.930;9.526;2023-03-15T00:04:12;1.77;;;1.33;;
18804;SDS011;9530;48.930;9.526;2023-03-15T00:06:38;2.13;;;1.60;;
18804;SDS011;9530;48.930;9.526;2023-03-15T00:09:05;2.87;;;1.50;;
18804;SDS011;9530;48.930;9.526;2023-03-15T00:11:32;2.57;;;1.53;;
18804;SDS011;9530;48.930;9.526;2023-03-15T00:13:59;1.97;;;1.50;;
18804;SDS011;9530;48.930;9.526;2023-03-15T00:16:26;1.10;;;1.00;;
18804;SDS011;9530;48.930;9.526;2023-03-15T00:18:53;2.00;;;1.30;;
18804;SDS011;9530;48.930;9.526;2023-03-15T00:21:22;1.57;;;1.37;;
18804;SDS011;9530;48.930;9.526;2023-03-15T00:23:49;1.70;;;1.30;;
18804;SDS011;9530;48.930;9.526;2023-03-15T00:26:16;3.73;;;1.40;;
18804;SDS011;9530;48.930;9.526;2023-03-15T00:28:43;2.20;;;1.90;;
18804;SDS011;9530;48.930;9.526;2023-03-15T00:31:12;4.07;;;2.07;;
18804;SDS011;9530;48.930;9.526;2023-03-15T00:33:40;3.20;;;2.00;;
18804;SDS011;9530;48.930;9.526;2023-03-15T00:36:07;2.97;;;2.10;;
18804;SDS011;9530;48.930;9.526;2023-03-15T00:38:37;4.37;;;2.70;;
18804;SDS011;9530;48.930;9.526;2023-03-15T00:41:05;3.30;;;2.23;;
18804;SDS011;9530;48.930;9.526;2023-03-15T00:43:32;5.13;;;2.67;;
18804;SDS011;9530;48.930;9.526;2023-03-15T00:46:00;3.57;;;2.60;;
18804;SDS011;9530;48.930;9.526;2023-03-15T00:48:27;2.87;;;2.37;;
18804;SDS011;9530;48.930;9.526;2023-03-15T00:51:00;3.90;;;2.27;;
18804;SDS011;9530;48.930;9.526;2023-03-15T00:53:27;3.27;;;2.47;;
18804;SDS011;9530;48.930;9.526;2023-03-15T00:55:55;5.50;;;2.77;;
18804;SDS011;9530;48.930;9.526;2023-03-15T00:58:22;3.97;;;2.90;;
18804;SDS011;9530;48.930;9.526;2023-03-15T01:00:49;4.97;;;2.80;;
18804;SDS011;9530;48.930;9.526;2023-03-15T01:03:16;3.87;;;2.83;;
18804;SDS011;9530;48.930;9.526;2023-03-15T01:05:43;4.60;;;2.57;;
18804;SDS011;9530;48.930;9.526;2023-03-15T01:08:09;3.50;;;2.63;;
18804;SDS011;9530;48.930;9.526;2023-03-15T01:10:36;4.37;;;3.20;;
18804;SDS011;9530;48.930;9.526;2023-03-15T01:13:04;5.33;;;3.13;;
18804;SDS011;9530;48.930;9.526;2023-03-15T01:15:31;6.87;;;3.60;;
18804;SDS011;9530;48.930;9.526;2023-03-15T01:17:58;4.43;;;3.60;;
18804;SDS011;9530;48.930;9.526;2023-03-15T01:20:24;5.50;;;3.40;;
18804;SDS011;9530;48.930;9.526;2023-03-15T01:22:51;4.43;;;3.30;;
18804;SDS011;9530;48.930;9.526;2023-03-15T01:25:18;7.27;;;4.70;;
18804;SDS011;9530;48.930;9.526;2023-03-15T01:27:44;4.77;;;3.17;;
18804;SDS011;9530;48.930;9.526;2023-03-15T01:30:13;4.90;;;3.50;;
18804;SDS011;9530;48.930;9.526;2023-03-15T01:32:39;4.17;;;3.30;;
18804;SDS011;9530;48.930;9.526;2023-03-15T01:35:06;3.87;;;3.37;;
18804;SDS011;9530;48.930;9.526;2023-03-15T01:37:33;4.83;;;3.37;;
18804;SDS011;9530;48.930;9.526;2023-03-15T01:40:00;4.77;;;3.30;;
18804;SDS011;9530;48.930;9.526;2023-03-15T01:42:30;4.23;;;3.50;;
18804;SDS011;9530;48.930;9.526;2023-03-15T01:44:57;4.13;;;3.73;;
18804;SDS011;9530;48.930;9.526;2023-03-15T01:47:26;5.83;;;4.57;;
18804;SDS011;9530;48.930;9.526;2023-03-15T01:49:54;5.07;;;4.57;;
18804;SDS011;9530;48.930;9.526;2023-03-15T01:52:28;5.27;;;4.40;;
18804;SDS011;9530;48.930;9.526;2023-03-15T01:54:59;6.50;;;5.20;;
18804;SDS011;9530;48.930;9.526;2023-03-15T01:57:30;6.93;;;5.57;;
18804;SDS011;9530;48.930;9.526;2023-03-15T02:00:03;6.73;;;5.70;;
18804;SDS011;9530;48.930;9.526;2023-03-15T02:02:37;8.30;;;6.10;;
18804;SDS011;9530;48.930;9.526;2023-03-15T02:05:05;9.50;;;6.37;;
18804;SDS011;9530;48.930;9.526;2023-03-15T02:07:35;7.90;;;6.33;;
18804;SDS011;9530;48.930;9.526;2023-03-15T02:10:05;9.63;;;6.70;;
18804;SDS011;9530;48.930;9.526;2023-03-15T02:12:35;10.50;;;7.40;;
18804;SDS011;9530;48.930;9.526;2023-03-15T02:15:05;9.20;;;7.20;;
18804;SDS011;9530;48.930;9.526;2023-03-15T02:17:37;11.40;;;7.47;;
18804;SDS011;9530;48.930;9.526;2023-03-15T02:20:10;11.80;;;8.00;;
18804;SDS011;9530;48.930;9.526;2023-03-15T02:22:52;12.03;;;8.07;;
18804;SDS011;9530;48.930;9.526;2023-03-15T02:25:22;13.47;;;8.50;;
18804;SDS011;9530;48.930;9.526;2023-03-15T02:27:58;13.80;;;8.70;;
18804;SDS011;9530;48.930;9.526;2023-03-15T02:30:26;13.33;;;8.90;;
18804;SDS011;9530;48.930;9.526;2023-03-15T02:32:52;11.63;;;9.17;;
18804;SDS011;9530;48.930;9.526;2023-03-15T02:35:22;14.20;;;9.57;;
18804;SDS011;9530;48.930;9.526;2023-03-15T02:37:50;15.03;;;9.17;;
18804;SDS011;9530;48.930;9.526;2023-03-15T02:40:17;13.27;;;9.20;;
18804;SDS011;9530;48.930;9.526;2023-03-15T02:42:46;11.90;;;9.07;;
18804;SDS011;9530;48.930;9.526;2023-03-15T02:45:18;13.27;;;9.27;;
18804;SDS011;9530;48.930;9.526;2023-03-15T02:47:46;12.33;;;8.37;;
18804;SDS011;9530;48.930;9.526;2023-03-15T02:50:14;13.67;;;8.40;;
18804;SDS011;9530;48.930;9.526;2023-03-15T02:52:41;12.70;;;7.73;;
18804;SDS011;9530;48.930;9.526;2023-03-15T02:55:07;12.23;;;8.10;;
18804;SDS011;9530;48.930;9.526;2023-03-15T02:57:34;13.17;;;8.40;;
18804;SDS011;9530;48.930;9.526;2023-03-15T03:00:01;13.87;;;8.73;;
18804;SDS011;9530;48.930;9.526;2023-03-15T03:02:38;11.23;;;7.30;;
18804;SDS011;9530;48.930;9.526;2023-03-15T03:05:05;10.30;;;6.40;;
18804;SDS011;9530;48.930;9.526;2023-03-15T03:07:33;25.40;;;14.33;;
18804;SDS011;9530;48.930;9.526;2023-03-15T03:10:00;13.03;;;8.03;;
18804;SDS011;9530;48.930;9.526;2023-03-15T03:12:27;9.57;;;4.97;;
18804;SDS011;9530;48.930;9.526;2023-03-15T03:14:54;8.70;;;4.93;;
18804;SDS011;9530;48.930;9.526;2023-03-15T03:17:21;10.60;;;5.00;;
18804;SDS011;9530;48.930;9.526;2023-03-15T03:19:49;8.30;;;4.40;;
18804;SDS011;9530;48.930;9.526;2023-03-15T03:22:16;5.67;;;4.07;;
18804;SDS011;9530;48.930;9.526;2023-03-15T03:24:43;8.40;;;4.10;;
18804;SDS011;9530;48.930;9.526;2023-03-15T03:27:10;6.30;;;3.83;;
18804;SDS011;9530;48.930;9.526;2023-03-15T03:29:38;10.27;;;4.20;;
18804;SDS011;9530;48.930;9.526;2023-03-15T03:32:05;6.13;;;3.70;;
18804;SDS011;9530;48.930;9.526;2023-03-15T03:34:32;7.33;;;4.20;;
18804;SDS011;9530;48.930;9.526;2023-03-15T03:37:01;7.83;;;4.27;;
18804;SDS011;9530;48.930;9.526;2023-03-15T03:39:27;5.30;;;3.90;;
18804;SDS011;9530;48.930;9.526;2023-03-15T03:41:54;9.00;;;4.23;;
18804;SDS011;9530;48.930;9.526;2023-03-15T03:44:21;7.40;;;3.80;;
18804;SDS011;9530;48.930;9.526;2023-03-15T03:46:48;7.83;;;3.90;;
18804;SDS011;9530;48.930;9.526;2023-03-15T03:49:14;8.77;;;3.90;;
18804;SDS011;9530;48.930;9.526;2023-03-15T03:51:41;9.40;;;4.07;;
18804;SDS011;9530;48.930;9.526;2023-03-15T03:54:09;8.97;;;3.90;;
18804;SDS011;9530;48.930;9.526;2023-03-15T03:56:36;8.03;;;3.67;;
18804;SDS011;9530;48.930;9.526;2023-03-15T03:59:03;7.73;;;4.17;;
18804;SDS011;9530;48.930;9.526;2023-03-15T04:01:30;8.50;;;3.83;;
18804;SDS011;9530;48.930;9.526;2023-03-15T04:03:57;4.53;;;3.40;;
18804;SDS011;9530;48.930;9.526;2023-03-15T04:06:24;7.27;;;3.77;;
18804;SDS011;9530;48.930;9.526;2023-03-15T04:08:50;6.23;;;3.67;;
18804;SDS011;9530;48.930;9.526;2023-03-15T04:11:18;6.77;;;3.80;;
18804;SDS011;9530;48.930;9.526;2023-03-15T04:13:45;9.63;;;4.00;;
18804;SDS011;9530;48.930;9.526;2023-03-15T04:16:12;8.17;;;4.23;;
18804;SDS011;9530;48.930;9.526;2023-03-15T04:18:39;6.23;;;3.60;;
18804;SDS011;9530;48.930;9.526;2023-03-15T04:21:06;7.73;;;3.90;;
18804;SDS011;9530;48.930;9.526;2023-03-15T04:23:35;7.77;;;3.97;;
18804;SDS011;9530;48.930;9.526;2023-03-15T04:26:02;10.27;;;4.10;;
18804;SDS011;9530;48.930;9.526;2023-03-15T04:28:31;7.93;;;3.67;;
18804;SDS011;9530;48.930;9.526;2023-03-15T04:30:58;5.93;;;3.90;;
18804;SDS011;9530;48.930;9.526;2023-03-15T04:33:25;7.83;;;3.93;;
18804;SDS011;9530;48.930;9.526;2023-03-15T04:35:52;10.30;;;3.63;;
18804;SDS011;9530;48.930;9.526;2023-03-15T04:38:19;9.00;;;4.27;;
18804;SDS011;9530;48.930;9.526;2023-03-15T04:40:50;7.47;;;4.10;;
18804;SDS011;9530;48.930;9.526;2023-03-15T04:43:17;7.53;;;4.20;;
18804;SDS011;9530;48.930;9.526;2023-03-15T04:45:45;7.97;;;4.03;;
18804;SDS011;9530;48.930;9.526;2023-03-15T04:48:12;7.73;;;4.00;;
18804;SDS011;9530;48.930;9.526;2023-03-15T04:50:38;5.80;;;3.90;;
18804;SDS011;9530;48.930;9.526;2023-03-15T04:53:05;6.67;;;4.30;;
18804;SDS011;9530;48.930;9.526;2023-03-15T04:55:32;10.43;;;5.27;;
18804;SDS011;9530;48.930;9.526;2023-03-15T04:57:58;13.77;;;5.63;;
18804;SDS011;9530;48.930;9.526;2023-03-15T05:00:25;18.27;;;8.60;;
18804;SDS011;9530;48.930;9.526;2023-03-15T05:02:53;21.73;;;9.87;;
18804;SDS011;9530;48.930;9.526;2023-03-15T05:05:20;16.27;;;8.00;;
18804;SDS011;9530;48.930;9.526;2023-03-15T05:07:47;13.13;;;6.60;;
18804;SDS011;9530;48.930;9.526;2023-03-15T05:10:14;9.97;;;5.43;;
18804;SDS011;9530;48.930;9.526;2023-03-15T05:12:41;9.67;;;4.47;;
18804;SDS011;9530;48.930;9.526;2023-03-15T05:15:08;10.53;;;5.00;;
18804;SDS011;9530;48.930;9.526;2023-03-15T05:17:35;8.13;;;4.70;;
18804;SDS011;9530;48.930;9.526;2023-03-15T05:20:04;7.17;;;4.17;;
18804;SDS011;9530;48.930;9.526;2023-03-15T05:22:34;6.67;;;4.20;;
18804;SDS011;9530;48.930;9.526;2023-03-15T05:25:01;7.87;;;4.30;;
18804;SDS011;9530;48.930;9.526;2023-03-15T05:27:28;5.57;;;3.97;;
18804;SDS011;9530;48.930;9.526;2023-03-15T05:29:56;6.53;;;4.30;;
18804;SDS011;9530;48.930;9.526;2023-03-15T05:32:23;5.97;;;4.10;;
18804;SDS011;9530;48.930;9.526;2023-03-15T05:34:50;7.33;;;4.67;;
18804;SDS011;9530;48.930;9.526;2023-03-15T05:37:20;5.87;;;3.73;;
18804;SDS011;9530;48.930;9.526;2023-03-15T05:39:46;7.77;;;3.90;;
18804;SDS011;9530;48.930;9.526;2023-03-15T05:42:13;6.47;;;3.97;;
18804;SDS011;9530;48.930;9.526;2023-03-15T05:44:40;8.27;;;3.83;;
18804;SDS011;9530;48.930;9.526;2023-03-15T05:47:07;7.60;;;4.03;;
18804;SDS011;9530;48.930;9.526;2023-03-15T05:49:33;8.20;;;3.90;;
18804;SDS011;9530;48.930;9.526;2023-03-15T05:52:00;6.13;;;3.67;;
18804;SDS011;9530;48.930;9.526;2023-03-15T05:54:28;8.20;;;3.80;;
18804;SDS011;9530;48.930;9.526;2023-03-15T05:56:55;5.00;;;3.37;;
18804;SDS011;9530;48.930;9.526;2023-03-15T05:59:22;7.83;;;3.83;;
18804;SDS011;9530;48.930;9.526;2023-03-15T06:01:48;9.00;;;3.77;;
18804;SDS011;9530;48.930;9.526;2023-03-15T06:04:15;8.00;;;3.60;;
18804;SDS011;9530;48.930;9.526;2023-03-15T06:06:42;5.77;;;3.27;;
18804;SDS011;9530;48.930;9.526;2023-03-15T06:09:08;6.87;;;3.63;;
18804;SDS011;9530;48.930;9.526;2023-03-15T06:11:37;5.93;;;3.60;;
18804;SDS011;9530;48.930;9.526;2023-03-15T06:14:03;4.73;;;2.83;;
18804;SDS011;9530;48.930;9.526;2023-03-15T06:16:30;6.57;;;3.37;;
18804;SDS011;9530;48.930;9.526;2023-03-15T06:18:57;8.90;;;2.87;;
18804;SDS011;9530;48.930;9.526;2023-03-15T06:21:23;7.97;;;3.13;;
18804;SDS011;9530;48.930;9.526;2023-03-15T06:23:50;5.83;;;2.60;;
18804;SDS011;9530;48.930;9.526;2023-03-15T06:26:17;5.67;;;2.77;;
18804;SDS011;9530;48.930;9.526;2023-03-15T06:28:45;5.67;;;2.80;;
18804;SDS011;9530;48.930;9.526;2023-03-15T06:31:12;7.93;;;3.50;;
18804;SDS011;9530;48.930;9.526;2023-03-15T06:33:39;4.57;;;2.60;;
18804;SDS011;9530;48.930;9.526;2023-03-15T06:36:06;5.43;;;2.60;;
18804;SDS011;9530;48.930;9.526;2023-03-15T06:38:33;6.17;;;3.00;;
18804;SDS011;9530;48.930;9.526;2023-03-15T06:41:00;8.57;;;3.00;;
18804;SDS011;9530;48.930;9.526;2023-03-15T06:43:29;6.60;;;3.20;;
18804;SDS011;9530;48.930;9.526;2023-03-15T06:45:57;6.57;;;2.97;;
18804;SDS011;9530;48.930;9.526;2023-03-15T06:48:24;7.07;;;2.90;;
18804;SDS011;9530;48.930;9.526;2023-03-15T06:50:50;5.97;;;2.70;;
18804;SDS011;9530;48.930;9.526;2023-03-15T06:53:17;7.27;;;2.87;;
18804;SDS011;9530;48.930;9.526;2023-03-15T06:55:44;5.10;;;2.50;;
18804;SDS011;9530;48.930;9.526;2023-03-15T06:58:11;5.47;;;2.63;;
18804;SDS011;9530;48.930;9.526;2023-03-15T07:00:38;4.70;;;2.40;;
18804;SDS011;9530;48.930;9.526;2023-03-15T07:03:07;4.17;;;2.30;;
18804;SDS011;9530;48.930;9.526;2023-03-15T07:05:33;7.97;;;2.47;;
18804;SDS011;9530;48.930;9.526;2023-03-15T07:08:01;6.87;;;2.70;;
18804;SDS011;9530;48.930;9.526;2023-03-15T07:10:27;9.43;;;2.73;;
18804;SDS011;9530;48.930;9.526;2023-03-15T07:12:54;12.20;;;3.17;;
18804;SDS011;9530;48.930;9.526;2023-03-15T07:15:21;6.93;;;2.83;;
18804;SDS011;9530;48.930;9.526;2023-03-15T07:17:48;7.87;;;3.10;;
18804;SDS011;9530;48.930;9.526;2023-03-15T07:20:16;8.10;;;2.83;;
18804;SDS011;9530;48.930;9.526;2023-03-15T07:22:43;6.73;;;2.23;;
18804;SDS011;9530;48.930;9.526;2023-03-15T07:25:09;9.70;;;2.57;;
18804;SDS011;9530;48.930;9.526;2023-03-15T07:27:36;5.90;;;2.30;;
18804;SDS011;9530;48.930;9.526;2023-03-15T07:30:03;8.97;;;2.77;;
18804;SDS011;9530;48.930;9.526;2023-03-15T07:32:32;7.30;;;2.60;;
18804;SDS011;9530;48.930;9.526;2023-03-15T07:34:58;9.40;;;3.07;;
18804;SDS011;9530;48.930;9.526;2023-03-15T07:37:27;9.80;;;2.80;;
18804;SDS011;9530;48.930;9.526;2023-03-15T07:39:54;7.17;;;2.73;;
18804;SDS011;9530;48.930;9.526;2023-03-15T07:42:21;8.20;;;2.83;;
18804;SDS011;9530;48.930;9.526;2023-03-15T07:44:48;8.13;;;2.60;;
18804;SDS011;9530;48.930;9.526;2023-03-15T07:47:15;8.70;;;3.17;;
18804;SDS011;9530;48.930;9.526;2023-03-15T07:49:42;9.50;;;3.47;;
18804;SDS011;9530;48.930;9.526;2023-03-15T07:52:08;6.87;;;3.00;;
18804;SDS011;9530;48.930;9.526;2023-03-15T07:54:37;8.50;;;3.40;;
18804;SDS011;9530;48.930;9.526;2023-03-15T07:57:04;8.77;;;3.17;;
18804;SDS011;9530;48.930;9.526;2023-03-15T07:59:30;11.93;;;3.40;;
18804;SDS011;9530;48.930;9.526;2023-03-15T08:01:57;5.17;;;3.07;;
18804;SDS011;9530;48.930;9.526;2023-03-15T08:04:24;6.57;;;2.90;;
18804;SDS011;9530;48.930;9.526;2023-03-15T08:06:51;12.47;;;3.63;;
18804;SDS011;9530;48.930;9.526;2023-03-15T08:09:17;13.10;;;3.53;;
18804;SDS011;9530;48.930;9.526;2023-03-15T08:11:45;7.37;;;3.53;;
18804;SDS011;9530;48.930;9.526;2023-03-15T08:14:12;6.10;;;3.10;;
18804;SDS011;9530;48.930;9.526;2023-03-15T08:16:39;8.63;;;4.17;;
18804;SDS011;9530;48.930;9.526;2023-03-15T08:19:05;10.30;;;3.30;;
18804;SDS011;9530;48.930;9.526;2023-03-15T08:21:33;7.23;;;3.23;;
18804;SDS011;9530;48.930;9.526;2023-03-15T08:24:00;7.80;;;3.40;;
18804;SDS011;9530;48.930;9.526;2023-03-15T08:26:26;8.27;;;2.77;;
18804;SDS011;9530;48.930;9.526;2023-03-15T08:28:54;7.07;;;2.87;;
18804;SDS011;9530;48.930;9.526;2023-03-15T08:31:21;10.00;;;3.47;;
18804;SDS011;9530;48.930;9.526;2023-03-15T08:33:48;6.33;;;3.00;;
18804;SDS011;9530;48.930;9.526;2023-03-15T08:36:14;10.70;;;3.30;;
18804;SDS011;9530;48.930;9.526;2023-03-15T08:38:41;9.33;;;3.20;;
18804;SDS011;9530;48.930;9.526;2023-03-15T08:41:08;7.17;;;3.20;;
18804;SDS011;9530;48.930;9.526;2023-03-15T08:43:34;9.53;;;4.07;;
18804;SDS011;9530;48.930;9.526;2023-03-15T08:46:03;8.27;;;2.50;;
18804;SDS011;9530;48.930;9.526;2023-03-15T08:48:29;10.70;;;2.50;;
18804;SDS011;9530;48.930;9.526;2023-03-15T08:51:00;8.97;;;2.53;;
18804;SDS011;9530;48.930;9.526;2023-03-15T08:53:28;7.73;;;2.60;;
18804;SDS011;9530;48.930;9.526;2023-03-15T08:55:54;7.07;;;2.20;;
18804;SDS011;9530;48.930;9.526;2023-03-15T08:58:21;11.57;;;2.27;;
18804;SDS011;9530;48.930;9.526;2023-03-15T09:00:48;6.37;;;2.27;;
18804;SDS011;9530;48.930;9.526;2023-03-15T09:03:17;4.67;;;1.97;;
18804;SDS011;9530;48.930;9.526;2023-03-15T09:05:44;9.63;;;2.60;;
18804;SDS011;9530;48.930;9.526;2023-03-15T09:08:11;4.67;;;2.10;;
18804;SDS011;9530;48.930;9.526;2023-03-15T09:10:38;6.90;;;1.90;;
18804;SDS011;9530;48.930;9.526;2023-03-15T09:13:05;4.97;;;1.73;;
18804;SDS011;9530;48.930;9.526;2023-03-15T09:15:31;8.63;;;2.03;;
18804;SDS011;9530;48.930;9.526;2023-03-15T09:17:58;7.43;;;2.23;;
18804;SDS011;9530;48.930;9.526;2023-03-15T09:20:26;7.83;;;2.07;;
18804;SDS011;9530;48.930;9.526;2023-03-15T09:22:54;7.90;;;2.30;;
18804;SDS011;9530;48.930;9.526;2023-03-15T09:25:22;6.80;;;1.93;;
18804;SDS011;9530;48.930;9.526;2023-03-15T09:27:50;3.87;;;1.80;;
18804;SDS011;9530;48.930;9.526;2023-03-15T09:30:17;4.97;;;2.00;;
18804;SDS011;9530;48.930;9.526;2023-03-15T09:32:44;5.23;;;2.00;;
18804;SDS011;9530;48.930;9.526;2023-03-15T09:35:11;5.60;;;2.10;;
18804;SDS011;9530;48.930;9.526;2023-03-15T09:37:41;7.40;;;1.97;;
18804;SDS011;9530;48.930;9.526;2023-03-15T09:40:11;6.73;;;2.53;;
18804;SDS011;9530;48.930;9.526;2023-03-15T09:42:46;8.03;;;1.80;;
18804;SDS011;9530;48.930;9.526;2023-03-15T09:45:23;6.87;;;1.93;;
18804;SDS011;9530;48.930;9.526;2023-03-15T09:47:58;9.33;;;1.90;;
18804;SDS011;9530;48.930;9.526;2023-03-15T09:50:30;4.17;;;1.60;;
18804;SDS011;9530;48.930;9.526;2023-03-15T09:53:01;6.40;;;2.10;;
18804;SDS011;9530;48.930;9.526;2023-03-15T09:55:29;10.83;;;2.00;;
18804;SDS011;9530;48.930;9.526;2023-03-15T09:57:56;6.43;;;2.00;;
18804;SDS011;9530;48.930;9.526;2023-03-15T10:00:25;6.07;;;1.63;;
18804;SDS011;9530;48.930;9.526;2023-03-15T10:02:59;5.00;;;1.70;;
18804;SDS011;9530;48.930;9.526;2023-03-15T10:05:33;5.03;;;1.67;;
18804;SDS011;9530;48.930;9.526;2023-03-15T10:08:08;3.40;;;1.50;;
18804;SDS011;9530;48.930;9.526;2023-03-15T10:10:38;5.03;;;1.60;;
18804;SDS011;9530;48.930;9.526;2023-03-15T10:13:12;7.37;;;1.67;;
18804;SDS011;9530;48.930;9.526;2023-03-15T10:15:52;5.37;;;1.50;;
18804;SDS011;9530;48.930;9.526;2023-03-15T10:18:29;5.73;;;1.60;;
18804;SDS011;9530;48.930;9.526;2023-03-15T10:21:08;7.27;;;1.83;;
18804;SDS011;9530;48.930;9.526;2023-03-15T10:23:41;6.10;;;1.67;;
18804;SDS011;9530;48.930;9.526;2023-03-15T10:26:14;7.07;;;2.10;;
18804;SDS011;9530;48.930;9.526;2023-03-15T10:28:46;5.30;;;1.90;;
18804;SDS011;9530;48.930;9.526;2023-03-15T10:31:14;6.00;;;1.70;;
18804;SDS011;9530;48.930;9.526;2023-03-15T10:33:43;5.20;;;1.60;;
18804;SDS011;9530;48.930;9.526;2023-03-15T10:36:12;6.43;;;1.90;;
18804;SDS011;9530;48.930;9.526;2023-03-15T10:38:42;7.43;;;2.07;;
18804;SDS011;9530;48.930;9.526;2023-03-15T10:41:10;4.83;;;2.03;;
18804;SDS011;9530;48.930;9.526;2023-03-15T10:43:39;4.77;;;1.90;;
18804;SDS011;9530;48.930;9.526;2023-03-15T10:46:07;4.93;;;1.80;;
18804;SDS011;9530;48.930;9.526;2023-03-15T10:48:35;5.53;;;2.00;;
18804;SDS011;9530;48.930;9.526;2023-03-15T10:51:04;5.83;;;1.70;;
18804;SDS011;9530;48.930;9.526;2023-03-15T10:53:32;8.03;;;1.80;;
18804;SDS011;9530;48.930;9.526;2023-03-15T10:56:02;6.33;;;2.10;;
18804;SDS011;9530;48.930;9.526;2023-03-15T10:58:38;3.77;;;1.63;;
18804;SDS011;9530;48.930;9.526;2023-03-15T11:01:07;8.17;;;2.50;;
18804;SDS011;9530;48.930;9.526;2023-03-15T11:03:39;6.27;;;2.50;;
18804;SDS011;9530;48.930;9.526;2023-03-15T11:06:17;5.77;;;1.40;;
18804;SDS011;9530;48.930;9.526;2023-03-15T11:08:45;6.53;;;2.80;;
18804;SDS011;9530;48.930;9.526;2023-03-15T11:11:13;6.80;;;1.83;;
18804;SDS011;9530;48.930;9.526;2023-03-15T11:13:39;7.77;;;3.47;;
18804;SDS011;9530;48.930;9.526;2023-03-15T11:16:16;8.60;;;3.30;;
18804;SDS011;9530;48.930;9.526;2023-03-15T11:18:46;5.27;;;2.00;;
18804;SDS011;9530;48.930;9.526;2023-03-15T11:21:17;5.40;;;2.00;;
18804;SDS011;9530;48.930;9.526;2023-03-15T11:23:46;5.77;;;2.20;;
18804;SDS011;9530;48.930;9.526;2023-03-15T11:26:17;3.80;;;1.70;;
18804;SDS011;9530;48.930;9.526;2023-03-15T11:28:47;4.93;;;1.70;;
18804;SDS011;9530;48.930;9.526;2023-03-15T11:31:17;5.10;;;2.00;;
18804;SDS011;9530;48.930;9.526;2023-03-15T11:33:47;5.03;;;1.73;;
18804;SDS011;9530;48.930;9.526;2023-03-15T11:36:18;3.53;;;1.70;;
18804;SDS011;9530;48.930;9.526;2023-03-15T11:38:47;7.53;;;1.90;;
18804;SDS011;9530;48.930;9.526;2023-03-15T11:41:21;5.73;;;1.63;;
18804;SDS011;9530;48.930;9.526;2023-03-15T11:43:55;4.50;;;1.50;;
18804;SDS011;9530;48.930;9.526;2023-03-15T11:46:29;10.00;;;2.07;;
18804;SDS011;9530;48.930;9.526;2023-03-15T11:49:01;4.30;;;1.73;;
18804;SDS011;9530;48.930;9.526;2023-03-15T11:51:34;6.17;;;2.30;;
18804;SDS011;9530;48.930;9.526;2023-03-15T11:54:06;5.63;;;1.60;;
18804;SDS011;9530;48.930;9.526;2023-03-15T11:56:46;4.90;;;1.53;;
18804;SDS011;9530;48.930;9.526;2023-03-15T11:59:15;5.53;;;1.90;;
18804;SDS011;9530;48.930;9.526;2023-03-15T12:01:45;8.63;;;1.60;;
18804;SDS011;9530;48.930;9.526;2023-03-15T12:07:04;4.97;;;1.63;;
18804;SDS011;9530;48.930;9.526;2023-03-15T12:09:37;5.27;;;1.40;;
18804;SDS011;9530;48.930;9.526;2023-03-15T12:12:32;4.90;;;1.70;;
18804;SDS011;9530;48.930;9.526;2023-03-15T12:18:18;6.50;;;2.00;;
18804;SDS011;9530;48.930;9.526;2023-03-15T12:20:48;5.93;;;1.60;;
18804;SDS011;9530;48.930;9.526;2023-03-15T12:23:28;5.07;;;1.80;;
18804;SDS011;9530;48.930;9.526;2023-03-15T12:26:04;4.73;;;1.40;;
18804;SDS011;9530;48.930;9.526;2023-03-15T12:28:34;4.27;;;1.67;;
18804;SDS011;9530;48.930;9.526;2023-03-15T12:31:03;6.27;;;1.70;;
18804;SDS011;9530;48.930;9.526;2023-03-15T12:33:32;4.73;;;2.17;;
18804;SDS011;9530;48.930;9.526;2023-03-15T12:36:14;5.47;;;1.70;;
18804;SDS011;9530;48.930;9.526;2023-03-15T12:38:52;8.53;;;2.30;;
18804;SDS011;9530;48.930;9.526;2023-03-15T12:41:34;6.27;;;2.47;;
18804;SDS011;9530;48.930;9.526;2023-03-15T12:44:23;4.67;;;2.07;;
18804;SDS011;9530;48.930;9.526;2023-03-15T12:46:52;4.50;;;2.10;;
18804;SDS011;9530;48.930;9.526;2023-03-15T12:49:30;4.40;;;2.00;;
18804;SDS011;9530;48.930;9.526;2023-03-15T12:52:02;6.07;;;2.00;;
18804;SDS011;9530;48.930;9.526;2023-03-15T12:54:32;5.73;;;2.40;;
18804;SDS011;9530;48.930;9.526;2023-03-15T12:57:08;8.37;;;2.57;;
18804;SDS011;9530;48.930;9.526;2023-03-15T12:59:38;5.63;;;2.27;;
18804;SDS011;9530;48.930;9.526;2023-03-15T13:02:18;5.63;;;2.43;;
18804;SDS011;9530;48.930;9.526;2023-03-15T13:05:13;4.50;;;2.07;;
18804;SDS011;9530;48.930;9.526;2023-03-15T13:07:47;5.10;;;2.27;;
18804;SDS011;9530;48.930;9.526;2023-03-15T13:10:25;4.37;;;2.37;;
18804;SDS011;9530;48.930;9.526;2023-03-15T13:13:06;7.20;;;2.37;;
18804;SDS011;9530;48.930;9.526;2023-03-15T13:15:41;5.10;;;2.37;;
18804;SDS011;9530;48.930;9.526;2023-03-15T13:18:14;4.63;;;2.40;;
18804;SDS011;9530;48.930;9.526;2023-03-15T13:20:47;3.23;;;2.17;;
18804;SDS011;9530;48.930;9.526;2023-03-15T13:23:25;5.20;;;2.33;;
18804;SDS011;9530;48.930;9.526;2023-03-15T13:28:46;9.57;;;3.90;;
18804;SDS011;9530;48.930;9.526;2023-03-15T13:31:19;5.80;;;2.43;;
18804;SDS011;9530;48.930;9.526;2023-03-15T13:33:47;6.80;;;3.43;;
18804;SDS011;9530;48.930;9.526;2023-03-15T13:36:15;6.83;;;3.07;;
18804;SDS011;9530;48.930;9.526;2023-03-15T13:38:44;6.30;;;4.07;;
18804;SDS011;9530;48.930;9.526;2023-03-15T13:41:17;5.53;;;3.70;;
18804;SDS011;9530;48.930;9.526;2023-03-15T13:43:46;5.83;;;3.70;;
18804;SDS011;9530;48.930;9.526;2023-03-15T13:46:13;7.33;;;2.90;;
18804;SDS011;9530;48.930;9.526;2023-03-15T13:48:43;4.47;;;2.33;;
18804;SDS011;9530;48.930;9.526;2023-03-15T13:51:15;3.43;;;2.13;;
18804;SDS011;9530;48.930;9.526;2023-03-15T13:53:47;5.77;;;2.30;;
18804;SDS011;9530;48.930;9.526;2023-03-15T13:56:16;4.10;;;2.10;;
18804;SDS011;9530;48.930;9.526;2023-03-15T13:58:46;6.27;;;2.10;;
18804;SDS011;9530;48.930;9.526;2023-03-15T14:01:15;5.27;;;2.40;;
18804;SDS011;9530;48.930;9.526;2023-03-15T14:03:46;3.47;;;1.90;;
18804;SDS011;9530;48.930;9.526;2023-03-15T14:06:19;7.77;;;2.50;;
18804;SDS011;9530;48.930;9.526;2023-03-15T14:08:48;3.80;;;2.10;;
18804;SDS011;9530;48.930;9.526;2023-03-15T14:11:30;4.67;;;2.53;;
18804;SDS011;9530;48.930;9.526;2023-03-15T14:14:00;7.83;;;3.40;;
18804;SDS011;9530;48.930;9.526;2023-03-15T14:16:30;5.77;;;2.43;;
18804;SDS011;9530;48.930;9.526;2023-03-15T14:19:11;4.60;;;2.50;;
18804;SDS011;9530;48.930;9.526;2023-03-15T14:21:41;3.60;;;2.37;;
18804;SDS011;9530;48.930;9.526;2023-03-15T14:24:11;3.87;;;2.20;;
18804;SDS011;9530;48.930;9.526;2023-03-15T14:26:40;3.67;;;2.00;;
18804;SDS011;9530;48.930;9.526;2023-03-15T14:29:11;4.30;;;2.03;;
18804;SDS011;9530;48.930;9.526;2023-03-15T14:31:45;3.43;;;2.03;;
18804;SDS011;9530;48.930;9.526;2023-03-15T14:34:19;3.53;;;1.97;;
18804;SDS011;9530;48.930;9.526;2023-03-15T14:36:50;5.00;;;1.97;;
18804;SDS011;9530;48.930;9.526;2023-03-15T14:39:23;4.13;;;1.63;;
18804;SDS011;9530;48.930;9.526;2023-03-15T14:41:51;4.10;;;1.70;;
18804;SDS011;9530;48.930;9.526;2023-03-15T14:44:17;2.97;;;1.20;;
18804;SDS011;9530;48.930;9.526;2023-03-15T14:46:45;3.23;;;1.40;;
18804;SDS011;9530;48.930;9.526;2023-03-15T14:49:12;3.53;;;1.20;;
18804;SDS011;9530;48.930;9.526;2023-03-15T14:51:44;2.67;;;1.27;;
18804;SDS011;9530;48.930;9.526;2023-03-15T14:54:11;1.47;;;1.27;;
18804;SDS011;9530;48.930;9.526;2023-03-15T14:56:38;3.03;;;1.50;;
18804;SDS011;9530;48.930;9.526;2023-03-15T14:59:08;3.50;;;1.87;;
18804;SDS011;9530;48.930;9.526;2023-03-15T15:01:37;2.47;;;1.63;;
18804;SDS011;9530;48.930;9.526;2023-03-15T15:04:06;2.07;;;1.43;;
18804;SDS011;9530;48.930;9.526;2023-03-15T15:06:32;2.50;;;1.57;;
18804;SDS011;9530;48.930;9.526;2023-03-15T15:09:02;2.73;;;1.60;;
18804;SDS011;9530;48.930;9.526;2023-03-15T15:11:30;4.03;;;1.60;;
18804;SDS011;9530;48.930;9.526;2023-03-15T15:13:57;3.53;;;1.50;;
18804;SDS011;9530;48.930;9.526;2023-03-15T15:16:23;8.33;;;3.70;;
18804;SDS011;9530;48.930;9.526;2023-03-15T15:18:50;3.53;;;1.77;;
18804;SDS011;9530;48.930;9.526;2023-03-15T15:21:18;3.20;;;1.63;;